createdAt,value
2023-01-01T00:01:40.252Z,14.67
2023-01-01T00:04:10.324Z,14.58
2023-01-01T00:06:36.882Z,14.64
2023-01-01T00:09:21.811Z,14.58
2023-01-01T00:11:48.347Z,14.40
2023-01-01T00:14:14.879Z,14.54
2023-01-01T00:16:41.505Z,14.41
2023-01-01T00:19:08.090Z,14.33
2023-01-01T00:21:34.657Z,14.32
2023-01-01T00:24:01.212Z,14.47
2023-01-01T00:26:32.811Z,14.39
2023-01-01T00:29:01.997Z,14.57
2023-01-01T00:31:28.533Z,14.49
2023-01-01T00:33:55.309Z,14.50
2023-01-01T00:36:22.844Z,14.50
2023-01-01T00:38:49.401Z,14.49
2023-01-01T00:41:16.048Z,14.31
2023-01-01T00:43:42.641Z,14.49
2023-01-01T00:46:09.329Z,14.47
2023-01-01T00:48:35.897Z,14.66
2023-01-01T00:51:02.450Z,14.55
2023-01-01T00:53:29.013Z,14.53
2023-01-01T00:55:56.400Z,14.45
2023-01-01T00:58:23.929Z,14.61
2023-01-01T01:00:51.164Z,14.38
2023-01-01T01:03:29.513Z,14.40
2023-01-01T01:06:04.978Z,14.63
2023-01-01T01:08:34.067Z,14.65
2023-01-01T01:11:11.814Z,14.65
2023-01-01T01:13:38.273Z,14.64
2023-01-01T01:16:31.831Z,14.52
2023-01-01T01:19:00.220Z,14.66
2023-01-01T01:21:27.528Z,14.59
2023-01-01T01:23:54.288Z,14.51
2023-01-01T01:26:22.730Z,14.47
2023-01-01T01:28:50.265Z,14.52
2023-01-01T01:31:17.805Z,14.52
2023-01-01T01:33:44.600Z,14.68
2023-01-01T01:36:11.183Z,14.64
2023-01-01T01:38:37.750Z,14.47
2023-01-01T01:41:04.446Z,14.50
2023-01-01T01:43:30.783Z,14.53
2023-01-01T01:45:59.027Z,14.52
2023-01-01T01:48:25.506Z,14.68
2023-01-01T01:50:52.731Z,14.60
2023-01-01T01:53:27.158Z,14.54
2023-01-01T01:55:59.333Z,14.31
2023-01-01T01:58:26.323Z,14.37
2023-01-01T02:00:52.846Z,14.24
2023-01-01T02:03:22.599Z,14.13
2023-01-01T02:05:49.288Z,14.07
2023-01-01T02:08:15.859Z,14.23
2023-01-01T02:10:42.711Z,14.14
2023-01-01T02:13:09.653Z,14.18
2023-01-01T02:16:02.351Z,14.13
2023-01-01T02:19:07.733Z,13.96
2023-01-01T02:21:56.024Z,14.02
2023-01-01T02:24:43.811Z,13.76
2023-01-01T02:27:30.482Z,14.05
2023-01-01T02:30:01.159Z,14.20
2023-01-01T02:32:55.016Z,14.24
2023-01-01T02:35:36.100Z,14.37
2023-01-01T02:38:14.569Z,14.29
2023-01-01T02:40:48.766Z,14.48
2023-01-01T02:43:17.891Z,14.44
2023-01-01T02:45:48.184Z,14.53
2023-01-01T02:48:49.643Z,14.46
2023-01-01T02:51:42.291Z,14.35
2023-01-01T02:54:11.052Z,14.58
2023-01-01T02:56:54.282Z,14.52
2023-01-01T02:59:49.031Z,14.34
2023-01-01T03:02:36.891Z,14.35
2023-01-01T03:05:12.304Z,14.42
2023-01-01T03:07:45.404Z,14.42
2023-01-01T03:10:15.358Z,14.42
2023-01-01T03:12:45.608Z,14.45
2023-01-01T03:15:14.860Z,14.33
2023-01-01T03:17:53.238Z,14.28
2023-01-01T03:20:22.850Z,14.20
2023-01-01T03:22:49.797Z,14.30
2023-01-01T03:25:24.146Z,14.36
2023-01-01T03:27:57.340Z,14.46
2023-01-01T03:30:23.851Z,14.44
2023-01-01T03:33:00.291Z,14.31
2023-01-01T03:35:30.443Z,14.21
2023-01-01T03:37:56.903Z,14.16
2023-01-01T03:40:23.444Z,14.17
2023-01-01T03:42:59.228Z,14.06
2023-01-01T03:45:28.420Z,14.01
2023-01-01T03:47:55.343Z,14.08
2023-01-01T03:50:30.050Z,14.01
2023-01-01T03:52:59.377Z,14.01
2023-01-01T03:55:31.691Z,14.14
2023-01-01T03:58:15.281Z,14.04
2023-01-01T04:00:53.952Z,13.99
2023-01-01T04:03:24.347Z,14.02
2023-01-01T04:05:50.902Z,13.91
2023-01-01T04:08:17.423Z,13.85
2023-01-01T04:10:46.305Z,13.89
2023-01-01T04:13:13.173Z,13.78
2023-01-01T04:15:39.648Z,13.62
2023-01-01T04:18:06.192Z,13.71
2023-01-01T04:20:32.856Z,13.71
2023-01-01T04:23:00.021Z,13.84
2023-01-01T04:25:26.948Z,13.77
2023-01-01T04:27:53.444Z,13.89
2023-01-01T04:30:20.035Z,13.75
2023-01-01T04:32:46.493Z,13.66
2023-01-01T04:35:14.004Z,13.64
2023-01-01T04:37:41.547Z,13.55
2023-01-01T04:40:08.672Z,13.47
2023-01-01T04:42:35.200Z,13.67
2023-01-01T04:45:01.691Z,13.62
2023-01-01T04:47:28.170Z,13.58
2023-01-01T04:49:54.768Z,13.60
2023-01-01T04:52:21.466Z,13.63
2023-01-01T04:54:47.945Z,13.67
2023-01-01T04:57:14.491Z,13.70
2023-01-01T04:59:41.178Z,13.80
2023-01-01T05:02:07.721Z,13.89
2023-01-01T05:04:34.319Z,13.75
2023-01-01T05:07:00.841Z,13.74
2023-01-01T05:09:27.312Z,13.80
2023-01-01T05:11:55.426Z,13.77
2023-01-01T05:14:21.914Z,13.65
2023-01-01T05:16:48.424Z,13.69
2023-01-01T05:19:15.168Z,13.62
2023-01-01T05:21:41.692Z,13.62
2023-01-01T05:24:09.404Z,13.54
2023-01-01T05:26:37.667Z,13.62
2023-01-01T05:29:06.751Z,13.68
2023-01-01T05:31:35.697Z,13.59
2023-01-01T05:36:32.042Z,13.71
2023-01-01T05:38:58.507Z,13.66
2023-01-01T05:41:25.001Z,13.58
2023-01-01T05:43:51.619Z,13.66
2023-01-01T05:46:19.711Z,13.61
2023-01-01T05:48:46.509Z,13.69
2023-01-01T05:51:14.545Z,13.64
2023-01-01T05:53:41.016Z,13.76
2023-01-01T05:56:07.707Z,13.64
2023-01-01T05:58:34.733Z,13.67
2023-01-01T06:01:18.299Z,13.64
2023-01-01T06:03:45.271Z,13.69
2023-01-01T06:06:13.187Z,13.48
2023-01-01T06:08:39.950Z,13.55
2023-01-01T06:11:07.693Z,13.56
2023-01-01T06:13:34.516Z,13.61
2023-01-01T06:16:01.621Z,13.41
2023-01-01T06:18:33.277Z,13.47
2023-01-01T06:21:13.378Z,13.20
2023-01-01T06:23:39.891Z,13.12
2023-01-01T06:26:16.816Z,13.22
2023-01-01T06:28:43.536Z,13.24
2023-01-01T06:31:12.403Z,13.31
2023-01-01T06:33:39.272Z,13.37
2023-01-01T06:36:07.774Z,13.34
2023-01-01T06:38:35.432Z,13.10
2023-01-01T06:41:03.651Z,13.15
2023-01-01T06:43:31.052Z,13.09
2023-01-01T06:46:05.154Z,13.02
2023-01-01T06:48:32.496Z,13.07
2023-01-01T06:50:59.345Z,13.11
2023-01-01T06:53:26.197Z,13.18
2023-01-01T06:55:57.099Z,13.14
2023-01-01T06:58:24.058Z,13.13
2023-01-01T07:00:50.529Z,13.08
2023-01-01T07:03:17.039Z,13.06
2023-01-01T07:05:43.577Z,13.01
2023-01-01T07:08:10.095Z,13.04
2023-01-01T07:10:36.580Z,12.90
2023-01-01T07:13:03.066Z,12.90
2023-01-01T07:15:29.671Z,12.88
2023-01-01T07:17:56.329Z,12.98
2023-01-01T07:20:22.803Z,12.95
2023-01-01T07:22:49.586Z,12.98
2023-01-01T07:25:16.504Z,12.84
2023-01-01T07:27:43.091Z,12.98
2023-01-01T07:30:09.775Z,12.94
2023-01-01T07:32:36.239Z,12.91
2023-01-01T07:35:02.715Z,13.23
2023-01-01T07:37:29.197Z,13.08
2023-01-01T07:39:55.666Z,12.91
2023-01-01T07:42:22.148Z,13.14
2023-01-01T07:44:48.636Z,13.07
2023-01-01T07:47:25.741Z,13.23
2023-01-01T07:49:52.289Z,13.09
2023-01-01T07:52:18.929Z,13.04
2023-01-01T07:54:45.768Z,13.00
2023-01-01T07:57:12.259Z,12.94
2023-01-01T07:59:38.721Z,13.10
2023-01-01T08:02:05.268Z,12.91
2023-01-01T08:04:31.760Z,12.92
2023-01-01T08:06:58.224Z,12.90
2023-01-01T08:09:24.997Z,12.86
2023-01-01T08:11:53.143Z,12.86
2023-01-01T08:14:19.684Z,12.78
2023-01-01T08:16:46.157Z,12.86
2023-01-01T08:19:12.621Z,12.83
2023-01-01T08:21:39.118Z,12.84
2023-01-01T08:24:05.623Z,12.87
2023-01-01T08:26:34.093Z,12.73
2023-01-01T08:29:02.814Z,12.78
2023-01-01T08:31:29.646Z,12.76
2023-01-01T08:33:56.203Z,12.85
2023-01-01T08:36:22.719Z,12.76
2023-01-01T08:38:49.220Z,12.99
2023-01-01T08:41:15.688Z,12.86
2023-01-01T08:43:42.461Z,12.81
2023-01-01T08:46:09.250Z,12.80
2023-01-01T08:48:35.826Z,12.91
2023-01-01T08:51:02.605Z,12.86
2023-01-01T08:53:30.037Z,12.91
2023-01-01T08:56:04.246Z,12.76
2023-01-01T08:58:30.808Z,12.82
2023-01-01T09:00:57.569Z,12.78
2023-01-01T09:03:24.224Z,12.79
2023-01-01T09:05:50.768Z,12.81
2023-01-01T09:08:17.414Z,12.88
2023-01-01T09:10:44.030Z,12.72
2023-01-01T09:13:11.264Z,12.71
2023-01-01T09:15:37.794Z,12.77
2023-01-01T09:18:04.393Z,12.75
2023-01-01T09:20:30.844Z,12.70
2023-01-01T09:23:02.520Z,12.78
2023-01-01T09:25:32.464Z,12.74
2023-01-01T09:27:59.758Z,12.77
2023-01-01T09:30:26.209Z,12.84
2023-01-01T09:32:52.720Z,12.95
2023-01-01T09:35:19.223Z,12.83
2023-01-01T09:37:45.709Z,12.92
2023-01-01T09:40:36.416Z,12.83
2023-01-01T09:43:40.777Z,12.74
2023-01-01T09:46:07.668Z,12.78
2023-01-01T09:48:36.880Z,12.78
2023-01-01T09:51:04.681Z,12.80
2023-01-01T09:54:08.860Z,12.70
2023-01-01T09:56:35.337Z,12.74
2023-01-01T09:59:02.184Z,12.79
2023-01-01T10:01:49.319Z,12.84
2023-01-01T10:04:24.049Z,12.76
2023-01-01T10:07:11.208Z,12.74
2023-01-01T10:09:46.664Z,12.80
2023-01-01T10:12:21.487Z,12.80
2023-01-01T10:14:50.138Z,12.72
2023-01-01T10:17:29.733Z,12.76
2023-01-01T10:19:57.837Z,12.77
2023-01-01T10:22:33.867Z,12.79
2023-01-01T10:25:13.454Z,12.69
2023-01-01T10:27:57.264Z,12.69
2023-01-01T10:30:25.900Z,12.71
2023-01-01T10:32:53.584Z,12.58
2023-01-01T10:35:26.882Z,12.57
2023-01-01T10:37:58.615Z,12.50
2023-01-01T10:40:26.586Z,12.59
2023-01-01T10:42:54.164Z,12.48
2023-01-01T10:45:32.937Z,12.45
2023-01-01T10:48:17.010Z,12.43
2023-01-01T10:50:46.902Z,12.45
2023-01-01T10:53:32.174Z,12.46
2023-01-01T10:56:05.794Z,12.43
2023-01-01T10:58:41.229Z,12.61
2023-01-01T11:01:27.667Z,12.52
2023-01-01T11:03:59.070Z,12.61
2023-01-01T11:06:32.840Z,12.52
2023-01-01T11:09:00.471Z,12.63
2023-01-01T11:11:28.724Z,12.55
2023-01-01T11:13:57.434Z,12.48
2023-01-01T11:16:23.964Z,12.51
2023-01-01T11:18:50.510Z,12.45
2023-01-01T11:21:21.841Z,12.30
2023-01-01T11:23:49.125Z,12.17
2023-01-01T11:26:18.523Z,12.39
2023-01-01T11:28:59.901Z,12.25
2023-01-01T11:31:34.271Z,12.14
2023-01-01T11:34:00.765Z,12.10
2023-01-01T11:36:29.249Z,12.08
2023-01-01T11:39:13.374Z,12.16
2023-01-01T11:41:44.267Z,12.24
2023-01-01T11:44:11.078Z,12.42
2023-01-01T11:46:37.697Z,12.40
2023-01-01T11:49:04.209Z,12.63
2023-01-01T11:51:31.852Z,12.65
2023-01-01T11:54:23.319Z,12.68
2023-01-01T11:56:50.705Z,12.63
2023-01-01T11:59:17.897Z,12.76
2023-01-01T12:01:52.688Z,12.78
2023-01-01T12:04:22.156Z,12.79
2023-01-01T12:07:17.325Z,12.91
2023-01-01T12:09:58.092Z,12.83
2023-01-01T12:12:33.488Z,12.84
2023-01-01T12:15:05.004Z,12.96
2023-01-01T12:17:47.283Z,13.02
2023-01-01T12:20:21.447Z,13.02
2023-01-01T12:22:48.174Z,13.12
2023-01-01T12:25:15.964Z,13.12
2023-01-01T12:28:00.678Z,13.19
2023-01-01T12:30:42.037Z,13.18
2023-01-01T12:33:44.235Z,13.20
2023-01-01T12:36:30.558Z,13.32
2023-01-01T12:39:15.295Z,13.41
2023-01-01T12:42:14.133Z,13.46
2023-01-01T12:44:54.044Z,13.43
2023-01-01T12:47:26.307Z,13.43
2023-01-01T12:50:07.901Z,13.55
2023-01-01T12:52:37.881Z,13.47
2023-01-01T12:55:25.700Z,13.44
2023-01-01T12:57:57.428Z,13.27
2023-01-01T13:00:23.859Z,13.18
2023-01-01T13:02:52.638Z,13.13
2023-01-01T13:05:24.545Z,13.11
2023-01-01T13:07:54.364Z,13.08
2023-01-01T13:10:25.434Z,13.16
2023-01-01T13:12:53.387Z,13.09
2023-01-01T13:15:38.159Z,12.96
2023-01-01T13:18:28.265Z,12.98
2023-01-01T13:21:04.878Z,12.98
2023-01-01T13:23:31.192Z,12.89
2023-01-01T13:26:22.904Z,12.91
2023-01-01T13:28:58.630Z,12.85
2023-01-01T13:31:40.358Z,12.95
2023-01-01T13:34:40.079Z,13.00
2023-01-01T13:37:17.227Z,13.06
2023-01-01T13:40:22.317Z,12.97
2023-01-01T13:42:57.793Z,13.04
2023-01-01T13:48:48.013Z,12.95
2023-01-01T13:52:02.962Z,12.81
2023-01-01T13:54:49.491Z,12.73
2023-01-01T13:57:37.323Z,12.75
2023-01-01T14:00:43.140Z,12.73
2023-01-01T14:03:14.372Z,12.71
2023-01-01T14:05:46.103Z,12.79
2023-01-01T14:08:27.775Z,12.76
2023-01-01T14:10:54.287Z,12.68
2023-01-01T14:13:29.849Z,12.66
2023-01-01T14:15:58.563Z,12.62
2023-01-01T14:18:47.366Z,12.77
2023-01-01T14:21:21.676Z,12.70
2023-01-01T14:23:59.227Z,12.62
2023-01-01T14:26:26.409Z,12.69
2023-01-01T14:28:56.491Z,12.58
2023-01-01T14:31:30.397Z,12.64
2023-01-01T14:33:56.925Z,12.62
2023-01-01T14:36:28.220Z,12.58
2023-01-01T14:38:55.906Z,12.70
2023-01-01T14:41:24.530Z,12.63
2023-01-01T14:43:51.838Z,12.54
2023-01-01T14:46:20.107Z,12.60
2023-01-01T14:48:47.897Z,12.53
2023-01-01T14:51:22.744Z,12.52
2023-01-01T14:53:49.227Z,12.46
2023-01-01T14:56:35.611Z,12.49
2023-01-01T14:59:14.161Z,12.47
2023-01-01T15:01:42.665Z,12.40
2023-01-01T15:04:23.744Z,12.35
2023-01-01T15:06:57.502Z,12.26
2023-01-01T15:09:24.017Z,12.28
2023-01-01T15:11:57.231Z,12.19
2023-01-01T15:14:35.724Z,12.20
2023-01-01T15:17:10.095Z,12.32
2023-01-01T15:19:37.640Z,12.22
2023-01-01T15:22:11.428Z,12.12
2023-01-01T15:24:38.007Z,11.94
2023-01-01T15:27:06.654Z,11.96
2023-01-01T15:29:35.634Z,12.10
2023-01-01T15:32:03.624Z,12.19
2023-01-01T15:34:35.497Z,12.04
2023-01-01T15:37:13.058Z,12.05
2023-01-01T15:39:50.009Z,11.92
2023-01-01T15:42:35.570Z,11.93
2023-01-01T15:45:22.392Z,11.88
2023-01-01T15:47:52.830Z,11.98
2023-01-01T15:50:26.284Z,11.85
2023-01-01T15:53:00.455Z,11.86
2023-01-01T15:55:28.441Z,11.87
2023-01-01T15:57:54.895Z,11.79
2023-01-01T16:00:22.915Z,11.59
2023-01-01T16:02:53.461Z,11.58
2023-01-01T16:05:29.208Z,11.60
2023-01-01T16:08:02.706Z,11.53
2023-01-01T16:10:29.195Z,11.43
2023-01-01T16:12:55.646Z,11.38
2023-01-01T16:15:22.128Z,11.12
2023-01-01T16:17:48.594Z,11.07
2023-01-01T16:20:16.077Z,10.92
2023-01-01T16:22:43.133Z,10.99
2023-01-01T16:25:14.562Z,11.02
2023-01-01T16:27:41.149Z,10.99
2023-01-01T16:30:08.071Z,11.01
2023-01-01T16:32:34.565Z,11.03
2023-01-01T16:35:04.189Z,11.03
2023-01-01T16:37:33.281Z,10.94
2023-01-01T16:39:59.744Z,10.76
2023-01-01T16:42:26.253Z,10.91
2023-01-01T16:44:52.778Z,10.74
2023-01-01T16:47:19.253Z,10.86
2023-01-01T16:49:46.023Z,10.77
2023-01-01T16:52:12.516Z,10.77
2023-01-01T16:54:40.144Z,10.80
2023-01-01T16:57:06.637Z,10.93
2023-01-01T16:59:33.148Z,11.03
2023-01-01T17:01:59.682Z,11.09
2023-01-01T17:04:27.939Z,11.02
2023-01-01T17:06:54.823Z,11.00
2023-01-01T17:09:21.330Z,11.07
2023-01-01T17:11:47.940Z,11.15
2023-01-01T17:14:14.566Z,11.16
2023-01-01T17:16:41.240Z,10.96
2023-01-01T17:19:16.574Z,10.81
2023-01-01T17:21:44.968Z,10.74
2023-01-01T17:24:11.484Z,10.50
2023-01-01T17:26:37.984Z,10.54
2023-01-01T17:29:06.770Z,10.40
2023-01-01T17:31:33.310Z,10.51
2023-01-01T17:33:59.848Z,10.52
2023-01-01T17:36:27.419Z,10.39
2023-01-01T17:38:53.977Z,10.34
2023-01-01T17:41:20.565Z,10.22
2023-01-01T17:43:48.787Z,10.40
2023-01-01T17:46:17.110Z,10.29
2023-01-01T17:48:44.031Z,10.46
2023-01-01T17:51:11.063Z,10.40
2023-01-01T17:53:39.340Z,10.38
2023-01-01T17:56:06.411Z,10.47
2023-01-01T17:58:35.561Z,10.50
2023-01-01T18:01:13.457Z,10.61
2023-01-01T18:03:40.303Z,10.69
2023-01-01T18:06:07.085Z,10.74
2023-01-01T18:08:33.570Z,10.55
2023-01-01T18:11:00.146Z,10.44
2023-01-01T18:13:27.218Z,10.18
2023-01-01T18:15:53.779Z,10.07
2023-01-01T18:18:20.300Z,9.96
2023-01-01T18:20:46.789Z,9.79
2023-01-01T18:23:13.252Z,9.70
2023-01-01T18:25:39.727Z,9.62
2023-01-01T18:28:07.953Z,9.92
2023-01-01T18:30:36.536Z,9.72
2023-01-01T18:33:03.085Z,9.65
2023-01-01T18:35:29.560Z,9.67
2023-01-01T18:37:56.980Z,9.73
2023-01-01T18:40:23.912Z,9.84
2023-01-01T18:43:02.756Z,9.93
2023-01-01T18:45:29.219Z,10.12
2023-01-01T18:47:55.685Z,10.16
2023-01-01T18:50:24.966Z,10.18
2023-01-01T18:53:06.280Z,10.15
2023-01-01T18:55:32.881Z,10.12
2023-01-01T18:58:02.068Z,9.97
2023-01-01T19:00:30.994Z,9.77
2023-01-01T19:02:57.486Z,9.75
2023-01-01T19:05:41.988Z,9.71
2023-01-01T19:08:08.398Z,9.80
2023-01-01T19:10:37.626Z,9.93
2023-01-01T19:13:21.259Z,9.96
2023-01-01T19:15:53.338Z,9.93
2023-01-01T19:18:23.183Z,10.01
2023-01-01T19:20:51.142Z,10.09
2023-01-01T19:23:22.060Z,10.24
2023-01-01T19:25:49.672Z,10.19
2023-01-01T19:28:19.125Z,10.24
2023-01-01T19:30:45.757Z,10.18
2023-01-01T19:33:12.839Z,10.23
2023-01-01T19:35:39.309Z,10.25
2023-01-01T19:38:05.987Z,10.18
2023-01-01T19:40:32.442Z,10.25
2023-01-01T19:42:58.964Z,10.19
2023-01-01T19:45:25.618Z,10.15
2023-01-01T19:47:52.081Z,10.13
2023-01-01T19:50:21.124Z,10.15
2023-01-01T19:52:47.625Z,10.19
2023-01-01T19:55:14.253Z,10.18
2023-01-01T19:57:40.751Z,10.10
2023-01-01T20:00:07.739Z,10.06
2023-01-01T20:02:49.890Z,10.10
2023-01-01T20:05:18.113Z,10.10
2023-01-01T20:07:44.655Z,10.12
2023-01-01T20:10:11.142Z,10.05
2023-01-01T20:12:37.649Z,9.96
2023-01-01T20:15:04.527Z,10.02
2023-01-01T20:17:31.028Z,9.94
2023-01-01T20:19:58.317Z,9.93
2023-01-01T20:22:24.849Z,9.93
2023-01-01T20:24:51.324Z,9.98
2023-01-01T20:27:17.894Z,9.96
2023-01-01T20:29:44.534Z,9.96
2023-01-01T20:32:12.911Z,9.92
2023-01-01T20:34:39.986Z,9.92
2023-01-01T20:37:25.127Z,9.87
2023-01-01T20:39:51.594Z,9.85
2023-01-01T20:42:18.073Z,9.84
2023-01-01T20:44:44.673Z,9.89
2023-01-01T20:47:11.706Z,9.90
2023-01-01T20:49:38.187Z,9.92
2023-01-01T20:52:04.749Z,9.94
2023-01-01T20:54:31.222Z,9.93
2023-01-01T20:56:57.695Z,10.00
2023-01-01T20:59:35.282Z,10.03
2023-01-01T21:02:02.444Z,10.02
2023-01-01T21:04:29.032Z,10.00
2023-01-01T21:06:55.525Z,9.98
2023-01-01T21:09:21.982Z,9.94
2023-01-01T21:11:48.458Z,9.93
2023-01-01T21:14:14.934Z,9.89
2023-01-01T21:16:42.832Z,10.04
2023-01-01T21:19:09.535Z,10.02
2023-01-01T21:21:49.542Z,10.02
2023-01-01T21:24:21.153Z,10.03
2023-01-01T21:26:47.711Z,10.04
2023-01-01T21:29:21.593Z,10.05
2023-01-01T21:31:51.121Z,10.12
2023-01-01T21:34:26.035Z,10.12
2023-01-01T21:36:55.420Z,10.09
2023-01-01T21:39:23.634Z,10.12
2023-01-01T21:41:50.247Z,10.10
2023-01-01T21:44:16.706Z,10.09
2023-01-01T21:46:47.054Z,10.13
2023-01-01T21:49:13.377Z,10.16
2023-01-01T21:51:42.302Z,10.15
2023-01-01T21:54:14.791Z,10.21
2023-01-01T21:56:42.430Z,10.24
2023-01-01T21:59:25.730Z,10.24
2023-01-01T22:01:53.773Z,10.25
2023-01-01T22:04:28.025Z,10.22
2023-01-01T22:07:09.487Z,10.27
2023-01-01T22:09:48.551Z,10.24
2023-01-01T22:12:14.865Z,10.26
2023-01-01T22:14:42.129Z,10.30
2023-01-01T22:17:30.697Z,10.35
2023-01-01T22:20:06.095Z,10.36
2023-01-01T22:22:32.873Z,10.35
2023-01-01T22:25:06.254Z,10.30
2023-01-01T22:27:37.543Z,10.28
2023-01-01T22:30:13.078Z,10.30
2023-01-01T22:32:39.551Z,10.30
2023-01-01T22:35:19.516Z,10.30
2023-01-01T22:37:49.518Z,10.28
2023-01-01T22:40:31.376Z,10.29
2023-01-01T22:43:05.845Z,10.28
2023-01-01T22:45:32.546Z,10.27
2023-01-01T22:47:59.900Z,10.24
2023-01-01T22:50:27.345Z,10.18
2023-01-01T22:52:53.820Z,10.18
2023-01-01T22:55:20.576Z,10.27
2023-01-01T22:57:47.125Z,10.26
2023-01-01T23:00:14.110Z,10.27
2023-01-01T23:02:40.668Z,10.27
2023-01-01T23:05:07.342Z,10.23
2023-01-01T23:07:39.641Z,10.26
2023-01-01T23:10:08.557Z,10.29
2023-01-01T23:12:35.015Z,10.27
2023-01-01T23:15:20.081Z,10.27
2023-01-01T23:17:46.563Z,10.24
2023-01-01T23:20:13.188Z,10.26
2023-01-01T23:22:41.490Z,10.31
2023-01-01T23:25:08.935Z,10.33
2023-01-01T23:27:35.422Z,10.33
2023-01-01T23:30:01.973Z,10.32
2023-01-01T23:32:28.890Z,10.33
2023-01-01T23:34:55.763Z,10.33
2023-01-01T23:37:22.257Z,10.36
2023-01-01T23:39:48.721Z,10.36
2023-01-01T23:42:15.203Z,10.41
2023-01-01T23:44:41.665Z,10.36
2023-01-01T23:47:08.331Z,10.45
2023-01-01T23:49:34.834Z,10.50
2023-01-01T23:52:02.328Z,10.53
2023-01-01T23:54:28.991Z,10.63
2023-01-01T23:56:55.490Z,10.66
2023-01-01T23:59:21.981Z,10.71
